Aviation Digital Data Service (ADDS)

Output produced by METARs form (0235 UTC 29 July 2015)
found at http://aviationweather.gov/adds/metars/
 
KRUT 282325Z 2900/2924 13005KT P6SM FEW080 SCT250 
     FM290800 13005KT 5SM BR SCT015 
     FM291300 27005KT P6SM SCT250 AMD LTD TO CLD VIS AND WIND